Terminal Aerodrome Forecast
Issued by NWS

Current Version | Previous Version | Text Only | Print | Product List | Glossary On
Versions: 1 2 3 4 5 6 7 8 9 10 11 12
594
FTUS43 KGRR 211130
TAFLAN
TAF
KLAN 211130Z 2112/2212 16006KT P6SM SCT120 BKN250
     FM211600 20008KT P6SM SCT040 BKN200
     FM212000 21008KT P6SM VCTS BKN040CB
     FM220000 21007KT P6SM BKN200
     FM220900 20012KT 3SM -SHRA BR VCTS OVC020CB=

USA.gov is the U.S. government's official web portal to all federal, state and local government web resources and services.